Time;durP1;ratioP1;P1;durP2;ratioP2;P2;SDS_P1;SDS_P2;PMS_P1;PMS_P2;Temp;Humidity;BMP_temperature;BMP_pressure;BME280_temperature;BME280_humidity;BME280_pressure;Samples;Min_cycle;Max_cycle;Signal;HPM_P1;HPM_P2
2023/03/17 00:00:50;;;;;;;3.08;1.67;;;7.30;99.90;;;;;;5034896;28;20052;-74
2023/03/17 00:03:24;;;;;;;3.13;2.28;;;7.30;99.90;;;;;;5034965;28;20123;-74
2023/03/17 00:05:50;;;;;;;3.08;1.90;;;7.30;99.90;;;;;;5034841;28;20053;-73
2023/03/17 00:08:34;;;;;;;2.53;1.70;;;7.30;99.90;;;;;;5034848;28;20049;-74
2023/03/17 00:11:00;;;;;;;3.80;1.90;;;7.40;99.90;;;;;;5052189;28;20049;-73
2023/03/17 00:13:27;;;;;;;2.75;1.80;;;7.40;99.90;;;;;;5052420;28;20144;-73
2023/03/17 00:15:58;;;;;;;3.05;1.80;;;7.40;99.90;;;;;;5034084;28;20517;-73
2023/03/17 00:18:23;;;;;;;4.40;1.83;;;7.40;99.90;;;;;;5034732;28;20045;-73
2023/03/17 00:20:50;;;;;;;3.65;2.17;;;7.40;99.90;;;;;;5051692;28;20102;-73
2023/03/17 00:23:20;;;;;;;3.45;2.10;;;7.40;99.90;;;;;;5052186;28;20056;-73
2023/03/17 00:25:47;;;;;;;3.70;2.00;;;7.40;99.90;;;;;;5051837;28;20037;-74
2023/03/17 00:28:20;;;;;;;3.17;2.35;;;7.40;99.90;;;;;;5051954;28;20056;-73
2023/03/17 00:30:48;;;;;;;3.95;2.38;;;7.40;99.90;;;;;;5050753;28;20041;-73
2023/03/17 00:33:15;;;;;;;3.60;2.30;;;7.40;99.90;;;;;;5034220;28;20052;-73
2023/03/17 00:35:42;;;;;;;3.75;2.40;;;7.40;99.90;;;;;;5051894;28;20091;-73
2023/03/17 00:38:16;;;;;;;3.70;2.08;;;7.30;99.90;;;;;;5033854;28;20045;-73
2023/03/17 00:40:43;;;;;;;3.58;2.30;;;7.30;99.90;;;;;;5034145;28;20041;-74
2023/03/17 00:43:09;;;;;;;2.97;2.20;;;7.30;99.90;;;;;;5050904;28;20049;-73
2023/03/17 00:45:35;;;;;;;3.53;2.17;;;7.30;99.90;;;;;;5051824;28;20045;-74
2023/03/17 00:48:02;;;;;;;5.07;2.60;;;7.20;99.90;;;;;;5034134;28;20581;-74
2023/03/17 00:50:28;;;;;;;3.22;2.20;;;7.20;99.90;;;;;;5033156;28;20136;-73
2023/03/17 00:52:56;;;;;;;4.65;2.20;;;7.20;99.90;;;;;;5051723;28;20447;-73
2023/03/17 00:55:25;;;;;;;3.38;2.10;;;7.10;99.90;;;;;;5051580;28;20041;-73
2023/03/17 00:57:53;;;;;;;5.13;2.25;;;7.10;99.90;;;;;;5050459;28;20151;-73
2023/03/17 01:00:28;;;;;;;3.20;2.15;;;7.10;99.90;;;;;;5052934;28;20053;-73
2023/03/17 01:02:55;;;;;;;5.45;2.72;;;7.10;99.90;;;;;;5035228;28;20041;-74
2023/03/17 01:05:23;;;;;;;3.17;2.40;;;7.10;99.90;;;;;;5034487;28;20053;-73
2023/03/17 01:07:53;;;;;;;4.50;2.60;;;7.10;99.90;;;;;;5033064;28;20049;-73
2023/03/17 01:10:25;;;;;;;3.33;2.10;;;7.20;99.90;;;;;;5051386;28;20055;-74
2023/03/17 01:12:52;;;;;;;3.55;2.13;;;7.10;99.90;;;;;;5033591;28;20134;-73
2023/03/17 01:15:20;;;;;;;3.50;2.25;;;7.10;99.90;;;;;;5051422;28;20094;-73
2023/03/17 01:17:47;;;;;;;3.13;2.38;;;7.10;99.90;;;;;;5033593;28;20040;-74
2023/03/17 01:20:23;;;;;;;4.53;2.55;;;7.00;99.90;;;;;;5032637;28;20049;-74
2023/03/17 01:22:49;;;;;;;3.42;2.13;;;7.00;99.90;;;;;;5033575;28;20052;-74
2023/03/17 01:25:17;;;;;;;4.20;2.33;;;7.00;99.90;;;;;;5033339;28;20048;-74
2023/03/17 01:27:43;;;;;;;3.17;2.13;;;7.00;99.90;;;;;;5033477;28;20068;-74
2023/03/17 01:30:29;;;;;;;4.22;1.98;;;7.00;99.90;;;;;;5033344;28;20127;-73
2023/03/17 01:32:56;;;;;;;4.05;2.55;;;7.00;99.90;;;;;;5051188;28;20131;-74
2023/03/17 01:35:23;;;;;;;3.70;2.40;;;7.00;99.90;;;;;;5033317;28;20048;-73
2023/03/17 01:37:50;;;;;;;4.00;2.47;;;7.00;99.90;;;;;;5051101;28;20049;-73
2023/03/17 01:40:21;;;;;;;3.70;2.60;;;7.00;99.90;;;;;;5033508;28;20149;-74
2023/03/17 01:43:10;;;;;;;3.42;2.30;;;7.00;99.90;;;;;;5051058;28;20100;-74
2023/03/17 01:46:10;;;;;;;4.38;2.50;;;7.00;99.90;;;;;;5017021;28;20084;-73
2023/03/17 01:49:14;;;;;;;4.43;2.55;;;7.00;99.90;;;;;;5033295;28;20063;-74
2023/03/17 01:51:52;;;;;;;4.15;2.28;;;6.90;99.90;;;;;;5045366;28;20135;-74
2023/03/17 01:54:27;;;;;;;3.65;2.40;;;6.90;99.90;;;;;;5016961;28;20079;-73
2023/03/17 01:56:57;;;;;;;3.83;2.87;;;6.90;99.90;;;;;;5016709;28;20064;-74
2023/03/17 01:59:29;;;;;;;4.03;2.50;;;6.90;99.90;;;;;;5050861;28;20414;-74
2023/03/17 02:02:07;;;;;;;4.65;2.50;;;6.90;99.90;;;;;;5050802;28;20041;-74
2023/03/17 02:04:34;;;;;;;4.65;2.85;;;6.90;99.90;;;;;;5033296;28;20057;-74
2023/03/17 02:07:02;;;;;;;4.60;2.50;;;6.90;99.90;;;;;;5050802;28;20084;-73
2023/03/17 02:09:28;;;;;;;4.68;2.75;;;6.90;99.90;;;;;;5033130;28;20053;-73
2023/03/17 02:11:55;;;;;;;3.53;2.60;;;6.90;99.90;;;;;;5032963;28;20383;-73
2023/03/17 02:14:21;;;;;;;3.88;2.38;;;6.90;99.90;;;;;;5016763;28;20405;-74
2023/03/17 02:16:47;;;;;;;3.70;2.38;;;6.90;99.90;;;;;;5032977;28;20057;-73
2023/03/17 02:19:13;;;;;;;5.60;2.38;;;6.90;99.90;;;;;;5051452;28;20092;-73
2023/03/17 02:21:40;;;;;;;3.95;2.40;;;6.90;99.90;;;;;;5036613;28;20051;-73
2023/03/17 02:24:17;;;;;;;3.88;2.50;;;6.90;99.90;;;;;;5036831;28;20049;-74
2023/03/17 02:26:46;;;;;;;4.97;3.50;;;6.90;99.90;;;;;;5054531;28;20106;-74
2023/03/17 02:29:11;;;;;;;4.00;2.45;;;7.00;99.90;;;;;;5020077;28;20082;-74
2023/03/17 02:31:37;;;;;;;4.28;2.80;;;6.90;99.90;;;;;;5054286;28;20045;-73
2023/03/17 02:34:03;;;;;;;5.18;2.90;;;6.80;99.90;;;;;;5054315;28;20446;-73
2023/03/17 02:36:28;;;;;;;4.57;2.65;;;6.80;99.90;;;;;;5053156;28;20098;-73
2023/03/17 02:38:55;;;;;;;4.28;2.83;;;6.80;99.90;;;;;;5020095;28;20504;-73
2023/03/17 02:41:22;;;;;;;4.43;2.50;;;6.80;99.90;;;;;;5053959;28;20049;-73
2023/03/17 02:43:48;;;;;;;4.75;2.85;;;6.90;99.90;;;;;;5036298;28;20052;-73
2023/03/17 02:46:13;;;;;;;4.20;2.65;;;6.80;99.90;;;;;;5054101;28;20454;-73
2023/03/17 02:48:40;;;;;;;3.30;2.35;;;6.80;99.90;;;;;;5054030;28;20067;-73
2023/03/17 02:51:06;;;;;;;3.45;2.67;;;6.80;99.90;;;;;;5031849;28;20062;-73
2023/03/17 02:53:32;;;;;;;3.67;2.50;;;6.90;99.90;;;;;;5018176;28;20108;-73
2023/03/17 02:55:57;;;;;;;4.20;2.65;;;6.90;99.90;;;;;;5012978;28;20057;-73
2023/03/17 02:58:23;;;;;;;6.45;2.70;;;6.90;99.90;;;;;;5012795;28;20042;-73
2023/03/17 03:00:49;;;;;;;5.60;3.08;;;6.90;99.90;;;;;;5014158;28;20081;-74
2023/03/17 03:03:15;;;;;;;3.95;2.65;;;6.90;99.90;;;;;;5014171;28;20449;-73
2023/03/17 03:05:41;;;;;;;3.50;2.50;;;6.80;99.90;;;;;;5015362;28;20049;-73
2023/03/17 03:08:07;;;;;;;4.05;2.53;;;6.80;99.90;;;;;;5032531;28;20064;-73
2023/03/17 03:10:33;;;;;;;4.43;2.75;;;6.70;99.90;;;;;;5033556;28;20045;-73
2023/03/17 03:13:00;;;;;;;4.50;2.42;;;6.70;99.90;;;;;;5033731;28;20164;-73
2023/03/17 03:15:26;;;;;;;3.80;2.50;;;6.60;99.90;;;;;;5032425;28;20154;-73
2023/03/17 03:17:51;;;;;;;4.13;2.80;;;6.60;99.90;;;;;;5032320;28;20199;-73
2023/03/17 03:20:18;;;;;;;3.53;2.40;;;6.60;99.90;;;;;;5031654;28;20057;-74
2023/03/17 03:22:44;;;;;;;3.53;2.55;;;6.60;99.90;;;;;;5033203;28;20505;-74
2023/03/17 03:25:09;;;;;;;3.90;2.85;;;6.60;99.90;;;;;;5032387;28;20085;-74
2023/03/17 03:27:35;;;;;;;4.78;2.85;;;6.70;99.90;;;;;;5015965;28;20398;-74
2023/03/17 03:30:01;;;;;;;3.58;2.40;;;6.60;99.90;;;;;;5025092;28;20046;-74
2023/03/17 03:32:27;;;;;;;3.40;2.30;;;6.60;99.90;;;;;;4996173;28;20750;-73
2023/03/17 03:34:53;;;;;;;3.83;2.30;;;6.60;99.90;;;;;;5013321;28;20046;-73
2023/03/17 03:37:19;;;;;;;4.68;2.70;;;6.60;99.90;;;;;;5015441;28;20052;-73
2023/03/17 03:39:45;;;;;;;5.80;2.70;;;6.60;99.90;;;;;;5031717;28;20479;-74
2023/03/17 03:42:11;;;;;;;3.35;2.33;;;6.60;99.90;;;;;;5031789;28;20045;-73
2023/03/17 03:44:36;;;;;;;4.75;2.40;;;6.60;99.90;;;;;;5032990;28;20140;-74
2023/03/17 03:47:02;;;;;;;6.72;3.03;;;6.60;99.90;;;;;;5031727;28;20067;-73
2023/03/17 03:49:28;;;;;;;3.92;2.70;;;6.60;99.90;;;;;;5031323;28;20459;-73
2023/03/17 03:51:54;;;;;;;3.75;2.60;;;6.60;99.90;;;;;;5031422;28;20509;-73
2023/03/17 03:54:19;;;;;;;4.60;2.60;;;6.60;99.90;;;;;;5015236;28;20482;-73
2023/03/17 03:56:45;;;;;;;4.57;3.03;;;6.60;99.90;;;;;;5031853;28;20136;-73
2023/03/17 03:59:11;;;;;;;3.80;2.45;;;6.60;99.90;;;;;;5031259;28;20041;-73
2023/03/17 04:01:38;;;;;;;5.07;2.42;;;6.60;99.90;;;;;;5032561;28;20053;-73
2023/03/17 04:04:04;;;;;;;3.70;2.30;;;6.50;99.90;;;;;;5032663;28;20426;-73
2023/03/17 04:06:30;;;;;;;3.90;2.42;;;6.50;99.90;;;;;;5021852;28;20054;-74
2023/03/17 04:08:55;;;;;;;4.50;2.78;;;6.50;99.90;;;;;;5011631;28;20120;-73
2023/03/17 04:11:21;;;;;;;3.97;2.47;;;6.50;99.90;;;;;;5012178;28;20046;-73
2023/03/17 04:13:47;;;;;;;4.65;2.55;;;6.50;99.90;;;;;;5012504;28;20060;-73
2023/03/17 04:16:13;;;;;;;3.20;2.25;;;6.50;99.90;;;;;;5011514;28;20053;-74
2023/03/17 04:18:39;;;;;;;4.57;2.95;;;6.50;99.90;;;;;;5011752;28;20045;-73
2023/03/17 04:21:05;;;;;;;4.03;2.75;;;6.50;99.90;;;;;;5010932;28;20046;-73
2023/03/17 04:23:31;;;;;;;4.60;2.45;;;6.50;99.90;;;;;;5011346;28;20690;-73
2023/03/17 04:25:57;;;;;;;4.45;2.85;;;6.50;99.90;;;;;;5011537;28;20064;-73
2023/03/17 04:28:23;;;;;;;4.47;2.75;;;6.50;99.90;;;;;;5011261;28;20129;-74
2023/03/17 04:30:49;;;;;;;4.15;2.60;;;6.40;99.90;;;;;;4978628;28;20124;-74
2023/03/17 04:33:15;;;;;;;3.30;2.20;;;6.40;99.90;;;;;;5011170;28;20085;-73
2023/03/17 04:35:41;;;;;;;3.95;2.40;;;6.40;99.90;;;;;;5012286;28;20054;-74
2023/03/17 04:38:10;;;;;;;4.25;2.85;;;6.40;99.90;;;;;;5020869;28;20057;-74
2023/03/17 04:40:36;;;;;;;4.53;2.40;;;6.40;99.90;;;;;;5030878;28;20076;-73
2023/03/17 04:43:01;;;;;;;4.07;2.58;;;6.40;99.90;;;;;;5030087;28;20042;-73
2023/03/17 04:45:27;;;;;;;4.00;2.42;;;6.40;99.90;;;;;;5030831;28;20061;-74
2023/03/17 04:47:53;;;;;;;3.60;2.58;;;6.40;99.90;;;;;;5030781;28;20049;-73
2023/03/17 04:50:18;;;;;;;4.00;2.42;;;6.40;99.90;;;;;;5030171;28;20136;-73
2023/03/17 04:52:44;;;;;;;3.72;2.58;;;6.40;99.90;;;;;;5033853;28;20057;-73
2023/03/17 04:55:10;;;;;;;3.70;3.10;;;6.40;99.90;;;;;;5033966;28;20049;-73
2023/03/17 04:57:37;;;;;;;4.65;3.08;;;6.30;99.90;;;;;;5051620;28;20057;-73
2023/03/17 05:00:04;;;;;;;3.55;2.47;;;6.30;99.90;;;;;;5033749;28;20041;-73
2023/03/17 05:02:29;;;;;;;3.83;2.53;;;6.30;99.90;;;;;;5033787;28;20110;-73
2023/03/17 05:04:56;;;;;;;4.47;2.80;;;6.30;99.90;;;;;;5050477;28;20424;-73
2023/03/17 05:07:21;;;;;;;3.78;2.65;;;6.30;99.90;;;;;;5033819;28;20075;-73
2023/03/17 05:09:47;;;;;;;3.35;2.40;;;6.40;99.90;;;;;;5017059;28;20486;-73
2023/03/17 05:12:13;;;;;;;3.42;2.30;;;6.40;99.90;;;;;;5051443;28;20055;-73
2023/03/17 05:14:39;;;;;;;5.30;2.70;;;6.40;99.90;;;;;;5017848;28;20478;-73
2023/03/17 05:17:05;;;;;;;3.20;2.22;;;6.40;99.90;;;;;;5035907;28;20089;-73
2023/03/17 05:19:31;;;;;;;3.15;2.47;;;6.40;99.90;;;;;;5052765;28;20049;-73
2023/03/17 05:21:56;;;;;;;4.50;2.95;;;6.40;99.90;;;;;;5051965;28;20314;-73
2023/03/17 05:24:22;;;;;;;4.25;2.60;;;6.40;99.90;;;;;;5051508;28;20045;-73
2023/03/17 05:26:48;;;;;;;4.05;2.47;;;6.40;99.90;;;;;;5051165;28;20053;-73
2023/03/17 05:29:14;;;;;;;4.15;2.80;;;6.30;99.90;;;;;;5051137;28;20048;-73
2023/03/17 05:31:39;;;;;;;4.25;2.53;;;6.40;99.90;;;;;;5051250;28;20052;-74
2023/03/17 05:34:05;;;;;;;3.92;2.40;;;6.40;99.90;;;;;;5033321;28;20486;-74
2023/03/17 05:36:32;;;;;;;3.45;2.17;;;6.40;99.90;;;;;;5033335;28;20056;-73
2023/03/17 05:38:58;;;;;;;4.07;2.50;;;6.50;99.90;;;;;;5033435;28;20057;-73
2023/03/17 05:41:24;;;;;;;3.63;2.35;;;6.50;99.90;;;;;;5033261;28;20056;-73
2023/03/17 05:43:50;;;;;;;3.25;2.08;;;6.50;99.90;;;;;;5033213;28;20048;-73
2023/03/17 05:46:16;;;;;;;4.10;2.45;;;6.50;99.90;;;;;;5032974;28;20135;-73
2023/03/17 05:48:42;;;;;;;4.63;2.65;;;6.50;99.90;;;;;;5032649;28;20139;-73
2023/03/17 05:51:08;;;;;;;4.40;2.10;;;6.50;99.90;;;;;;5049615;28;20144;-73
2023/03/17 05:53:35;;;;;;;3.72;2.47;;;6.60;99.90;;;;;;5034823;28;20110;-73
2023/03/17 05:56:01;;;;;;;3.15;2.53;;;6.60;99.90;;;;;;5054616;28;20474;-73
2023/03/17 05:58:26;;;;;;;3.15;2.10;;;6.60;99.90;;;;;;5037329;28;20052;-73
2023/03/17 06:00:52;;;;;;;3.72;2.47;;;6.60;99.90;;;;;;5053727;28;20053;-73
2023/03/17 06:03:18;;;;;;;3.92;2.40;;;6.60;99.90;;;;;;5055018;28;20045;-73
2023/03/17 06:05:43;;;;;;;3.97;2.50;;;6.60;99.90;;;;;;5054693;28;20126;-73
2023/03/17 06:08:09;;;;;;;5.05;2.42;;;6.70;99.90;;;;;;5037181;28;20547;-74
2023/03/17 06:10:35;;;;;;;4.30;2.40;;;6.70;99.90;;;;;;5020351;28;20052;-73
2023/03/17 06:13:01;;;;;;;3.67;2.33;;;6.70;99.90;;;;;;5054646;28;20546;-73
2023/03/17 06:15:27;;;;;;;3.60;2.38;;;6.70;99.90;;;;;;5054678;28;20052;-73
2023/03/17 06:17:53;;;;;;;4.82;2.60;;;6.70;99.90;;;;;;5054386;28;20132;-74
2023/03/17 06:20:19;;;;;;;3.58;2.60;;;6.70;99.90;;;;;;5054069;28;20475;-73
2023/03/17 06:22:45;;;;;;;4.25;2.40;;;6.80;99.90;;;;;;5036437;28;20040;-73
2023/03/17 06:25:11;;;;;;;5.55;2.67;;;6.90;99.90;;;;;;5054451;28;20162;-74
2023/03/17 06:27:37;;;;;;;3.42;2.13;;;7.00;99.90;;;;;;5053266;28;20052;-73
2023/03/17 06:30:07;;;;;;;3.33;1.90;;;7.00;99.90;;;;;;5036509;28;20098;-73
2023/03/17 06:32:34;;;;;;;3.65;2.00;;;7.10;99.90;;;;;;5036613;28;20041;-73
2023/03/17 06:35:00;;;;;;;3.33;2.20;;;7.20;99.90;;;;;;5054327;28;20073;-73
2023/03/17 06:37:26;;;;;;;3.20;2.15;;;7.30;99.90;;;;;;5036513;28;20049;-73
2023/03/17 06:39:52;;;;;;;3.40;1.95;;;7.30;99.90;;;;;;5036469;28;20389;-73
2023/03/17 06:42:18;;;;;;;3.42;2.20;;;7.50;99.90;;;;;;5054091;28;20045;-73
2023/03/17 06:44:44;;;;;;;4.85;2.70;;;7.50;99.90;;;;;;5053617;28;20453;-73
2023/03/17 06:47:10;;;;;;;3.10;2.13;;;7.70;99.90;;;;;;5036200;28;20048;-74
2023/03/17 06:49:35;;;;;;;4.13;2.25;;;7.80;99.90;;;;;;5035977;28;20385;-74
2023/03/17 06:52:01;;;;;;;4.15;2.17;;;8.00;99.90;;;;;;5035350;28;20056;-74
2023/03/17 06:54:27;;;;;;;3.28;2.13;;;8.10;99.90;;;;;;5036323;28;20509;-73
2023/03/17 06:56:53;;;;;;;2.92;2.10;;;8.20;99.90;;;;;;5053706;28;20053;-73
2023/03/17 06:59:20;;;;;;;2.67;2.17;;;8.30;99.90;;;;;;5052544;28;20048;-74
2023/03/17 07:01:48;;;;;;;3.45;2.28;;;8.40;99.90;;;;;;5035931;28;20841;-74
2023/03/17 07:04:14;;;;;;;3.85;1.73;;;8.50;99.90;;;;;;5053336;28;20478;-74
2023/03/17 07:06:41;;;;;;;3.38;2.10;;;8.60;99.90;;;;;;5035512;28;20041;-73
2023/03/17 07:09:08;;;;;;;2.88;1.90;;;8.70;99.90;;;;;;5053649;28;20440;-73
2023/03/17 07:11:34;;;;;;;3.03;2.10;;;8.80;99.90;;;;;;5053516;28;20053;-65
2023/03/17 07:14:01;;;;;;;3.85;2.25;;;8.80;99.90;;;;;;5052401;28;20049;-65
2023/03/17 07:16:27;;;;;;;4.20;2.47;;;8.80;99.90;;;;;;5053438;28;20616;-65
2023/03/17 07:18:54;;;;;;;4.07;2.25;;;8.80;99.90;;;;;;5053030;28;20533;-65
2023/03/17 07:21:19;;;;;;;3.70;2.00;;;8.80;99.90;;;;;;5052847;28;20132;-65
2023/03/17 07:23:45;;;;;;;3.50;2.00;;;8.80;99.90;;;;;;5053243;28;20127;-66
2023/03/17 07:26:11;;;;;;;2.90;2.30;;;8.80;99.90;;;;;;5035336;28;20091;-66
2023/03/17 07:28:37;;;;;;;3.10;2.03;;;8.80;99.90;;;;;;5053103;28;20053;-66
2023/03/17 07:31:06;;;;;;;4.60;2.28;;;8.80;99.90;;;;;;5052803;28;20493;-66
2023/03/17 07:33:32;;;;;;;2.95;1.73;;;8.80;99.90;;;;;;5052915;28;20128;-65
2023/03/17 07:35:58;;;;;;;4.07;2.05;;;8.90;99.90;;;;;;5052978;28;20135;-66
2023/03/17 07:38:23;;;;;;;2.58;1.95;;;9.00;99.90;;;;;;5053023;28;20112;-66
2023/03/17 07:40:49;;;;;;;4.07;2.25;;;9.00;99.90;;;;;;5051869;28;20454;-65
2023/03/17 07:43:16;;;;;;;3.55;2.13;;;9.00;99.90;;;;;;5052998;28;20053;-66
2023/03/17 07:45:43;;;;;;;2.83;1.80;;;9.10;99.90;;;;;;5052807;28;20075;-67
2023/03/17 07:48:09;;;;;;;4.43;2.28;;;9.10;99.90;;;;;;5052874;28;20478;-66
2023/03/17 07:50:35;;;;;;;4.00;2.00;;;9.20;99.90;;;;;;5034287;28;20088;-66
2023/03/17 07:53:02;;;;;;;3.22;1.90;;;9.20;99.90;;;;;;5052704;28;20060;-66
2023/03/17 07:55:28;;;;;;;3.00;2.15;;;9.20;99.90;;;;;;5052693;28;20064;-66
2023/03/17 07:57:54;;;;;;;3.55;2.25;;;9.30;99.90;;;;;;5035127;28;20084;-66
2023/03/17 08:00:22;;;;;;;2.95;1.90;;;9.30;99.90;;;;;;5052655;28;20080;-66
2023/03/17 08:02:49;;;;;;;4.68;2.10;;;9.50;99.90;;;;;;5052217;28;20053;-66
2023/03/17 08:05:15;;;;;;;2.92;1.70;;;9.60;99.90;;;;;;5052579;28;20059;-66
2023/03/17 08:07:40;;;;;;;3.20;1.90;;;9.80;99.90;;;;;;5052010;28;20049;-66
2023/03/17 08:10:07;;;;;;;3.88;1.80;;;9.90;99.90;;;;;;5052069;28;20306;-67
2023/03/17 08:12:34;;;;;;;4.25;2.63;;;9.90;99.90;;;;;;5051759;28;20452;-66
2023/03/17 08:15:00;;;;;;;4.10;1.90;;;9.90;99.90;;;;;;5051399;28;20049;-67
2023/03/17 08:17:26;;;;;;;2.72;1.70;;;9.90;99.90;;;;;;5050344;28;20633;-67
2023/03/17 08:19:55;;;;;;;2.88;2.00;;;9.90;99.90;;;;;;5027323;28;21117;-75
2023/03/17 08:22:21;;;;;;;3.42;2.25;;;10.00;99.90;;;;;;5050576;28;20427;-74
2023/03/17 08:24:47;;;;;;;3.15;1.80;;;10.20;99.90;;;;;;5034096;28;20053;-75
2023/03/17 08:27:14;;;;;;;3.65;2.10;;;10.40;99.90;;;;;;5051570;28;20400;-75
2023/03/17 08:29:40;;;;;;;3.20;1.95;;;10.60;99.90;;;;;;5051870;28;20083;-74
2023/03/17 08:32:06;;;;;;;2.80;1.88;;;10.60;99.90;;;;;;5033744;28;20053;-74
2023/03/17 08:34:32;;;;;;;2.78;1.80;;;10.60;99.90;;;;;;5051115;28;20131;-72
2023/03/17 08:37:00;;;;;;;4.00;2.03;;;10.60;99.90;;;;;;5043900;28;20440;-73
2023/03/17 08:39:26;;;;;;;3.13;2.00;;;10.60;99.90;;;;;;5033399;28;20132;-73
2023/03/17 08:41:51;;;;;;;3.90;2.28;;;10.60;99.90;;;;;;5051170;28;20129;-73
2023/03/17 08:44:18;;;;;;;2.58;1.70;;;10.70;99.90;;;;;;5051440;28;20551;-72
2023/03/17 08:46:44;;;;;;;3.42;2.00;;;10.70;99.90;;;;;;5051430;28;20053;-65
2023/03/17 08:49:11;;;;;;;4.03;2.28;;;10.80;99.90;;;;;;5050937;28;20512;-66
2023/03/17 08:51:38;;;;;;;4.50;2.20;;;10.80;99.90;;;;;;5049317;28;20517;-66
2023/03/17 08:54:05;;;;;;;3.75;2.00;;;10.90;99.90;;;;;;5051199;28;20095;-66
2023/03/17 08:56:32;;;;;;;4.47;2.10;;;10.90;99.90;;;;;;5050225;28;20083;-65
2023/03/17 08:58:58;;;;;;;2.70;1.90;;;10.80;99.90;;;;;;5050468;28;20084;-65
2023/03/17 09:01:24;;;;;;;3.25;2.00;;;10.80;99.90;;;;;;5032627;28;20079;-66
2023/03/17 09:03:52;;;;;;;3.10;1.85;;;10.90;99.90;;;;;;5051333;28;20441;-66
2023/03/17 09:06:18;;;;;;;3.10;1.90;;;10.90;99.90;;;;;;5050997;28;20497;-65
2023/03/17 09:08:46;;;;;;;2.38;1.80;;;10.90;99.90;;;;;;5051338;28;20099;-65
2023/03/17 09:11:17;;;;;;;3.72;2.17;;;11.00;99.90;;;;;;5051150;28;20056;-65
2023/03/17 09:13:45;;;;;;;3.88;2.28;;;11.10;99.90;;;;;;5051386;28;20091;-65
2023/03/17 09:16:11;;;;;;;3.70;1.88;;;11.30;99.90;;;;;;5051126;28;20056;-66
2023/03/17 09:18:37;;;;;;;3.15;2.00;;;11.40;99.90;;;;;;5051258;28;20394;-65
2023/03/17 09:21:03;;;;;;;4.10;2.13;;;11.50;99.90;;;;;;5050185;28;20049;-66
2023/03/17 09:23:29;;;;;;;3.55;1.70;;;11.60;99.90;;;;;;5050395;28;20052;-66
2023/03/17 09:25:56;;;;;;;3.20;1.98;;;11.70;99.90;;;;;;5051098;28;20064;-66
2023/03/17 09:28:23;;;;;;;5.53;2.45;;;11.80;99.90;;;;;;5050669;28;20059;-65
2023/03/17 09:30:49;;;;;;;4.28;2.10;;;11.80;99.90;;;;;;5050987;28;20057;-66
2023/03/17 09:33:16;;;;;;;3.53;2.15;;;11.80;99.90;;;;;;5033512;28;20053;-65
2023/03/17 09:35:42;;;;;;;3.38;2.20;;;11.90;99.90;;;;;;5033039;28;20098;-66
2023/03/17 09:38:08;;;;;;;3.33;1.67;;;12.00;99.90;;;;;;5050729;28;20506;-65
2023/03/17 09:40:55;;;;;;;2.85;1.88;;;12.10;99.90;;;;;;5050788;28;20089;-65
2023/03/17 09:43:42;;;;;;;3.50;2.10;;;12.20;99.90;;;;;;5033134;28;20053;-65
2023/03/17 09:46:29;;;;;;;3.63;1.95;;;12.40;99.90;;;;;;5050682;28;20144;-65
2023/03/17 09:49:24;;;;;;;3.33;2.22;;;12.40;99.90;;;;;;5049273;28;20053;-66
2023/03/17 09:51:50;;;;;;;3.58;1.83;;;12.50;99.90;;;;;;5050169;28;20148;-65
2023/03/17 09:54:37;;;;;;;3.45;2.30;;;12.60;99.90;;;;;;5050648;28;20088;-66
2023/03/17 09:57:27;;;;;;;3.30;2.15;;;12.70;99.90;;;;;;5050951;28;20044;-66
2023/03/17 10:00:17;;;;;;;3.20;2.15;;;12.80;99.90;;;;;;5050647;28;20048;-66
2023/03/17 10:02:44;;;;;;;3.30;1.88;;;12.90;99.90;;;;;;5050845;28;20053;-67
2023/03/17 10:05:20;;;;;;;3.28;2.13;;;13.00;99.90;;;;;;5050737;28;20048;-65
2023/03/17 10:08:01;;;;;;;3.97;2.15;;;13.00;99.90;;;;;;5030615;28;20054;-66
2023/03/17 10:10:47;;;;;;;3.92;2.20;;;12.90;99.90;;;;;;5030738;28;20049;-66
2023/03/17 10:13:37;;;;;;;4.03;2.30;;;13.10;99.90;;;;;;5030612;28;20092;-65
2023/03/17 10:16:17;;;;;;;4.20;2.63;;;13.30;99.90;;;;;;5012359;28;20371;-65
2023/03/17 10:18:56;;;;;;;3.85;2.50;;;13.40;99.90;;;;;;5030252;28;20172;-66
2023/03/17 10:21:28;;;;;;;3.15;2.28;;;13.50;99.90;;;;;;5030313;28;20041;-67
2023/03/17 10:23:56;;;;;;;4.22;2.35;;;13.70;99.90;;;;;;5049459;28;20072;-67
2023/03/17 10:26:41;;;;;;;4.97;2.55;;;13.80;99.90;;;;;;5048576;28;20049;-67
2023/03/17 10:29:22;;;;;;;3.92;2.30;;;13.90;99.90;;;;;;5049436;28;20048;-67
2023/03/17 10:31:50;;;;;;;5.43;2.72;;;14.00;99.90;;;;;;5050184;28;20053;-66
2023/03/17 10:34:31;;;;;;;4.50;2.35;;;14.10;99.90;;;;;;5050224;28;20067;-67
2023/03/17 10:37:16;;;;;;;5.13;2.50;;;14.10;99.90;;;;;;5049900;28;20057;-67
2023/03/17 10:39:51;;;;;;;3.78;2.47;;;14.20;99.90;;;;;;5038029;28;20417;-66
2023/03/17 10:42:29;;;;;;;4.00;2.25;;;14.30;99.90;;;;;;5053886;28;20044;-67
2023/03/17 10:44:56;;;;;;;4.95;2.67;;;14.40;99.90;;;;;;5035443;28;20662;-67
2023/03/17 10:47:29;;;;;;;4.63;2.10;;;14.60;99.90;;;;;;5053621;28;20136;-66
2023/03/17 10:50:16;;;;;;;4.20;2.50;;;14.60;99.90;;;;;;5033839;28;20044;-66
2023/03/17 10:52:46;;;;;;;4.43;2.70;;;14.70;99.90;;;;;;5053159;28;20183;-66
2023/03/17 10:55:16;;;;;;;3.55;2.60;;;14.70;99.90;;;;;;5052610;28;20582;-67
2023/03/17 10:58:17;;;;;;;6.20;2.53;;;14.80;99.90;;;;;;5052588;28;20095;-65
2023/03/17 11:01:29;;;;;;;3.50;2.80;;;14.80;99.90;;;;;;5023870;28;20068;-67
2023/03/17 11:03:55;;;;;;;3.72;2.60;;;14.90;99.90;;;;;;4952307;29;20050;-65
2023/03/17 11:06:38;;;;;;;3.60;2.33;;;15.10;99.90;;;;;;5038869;28;20131;-65
2023/03/17 11:09:17;;;;;;;5.28;2.78;;;15.00;99.90;;;;;;5053499;28;20049;-66
2023/03/17 11:11:48;;;;;;;5.25;2.72;;;14.90;99.90;;;;;;5052977;28;20044;-66
2023/03/17 11:14:17;;;;;;;4.20;3.10;;;14.90;99.90;;;;;;5053152;28;20092;-66
2023/03/17 11:17:44;;;;;;;4.15;2.72;;;15.00;99.90;;;;;;5053139;28;20453;-65
2023/03/17 11:20:25;;;;;;;5.07;3.03;;;15.10;99.90;;;;;;4969921;28;20051;-68
2023/03/17 11:23:18;;;;;;;4.18;2.70;;;15.20;99.90;;;;;;4971099;28;20051;-67
2023/03/17 11:25:48;;;;;;;4.97;2.83;;;15.20;99.90;;;;;;5043306;28;20068;-67
2023/03/17 11:28:20;;;;;;;4.90;2.95;;;15.10;99.90;;;;;;5052438;28;20140;-67
2023/03/17 11:31:29;;;;;;;6.05;2.80;;;15.20;99.90;;;;;;5052761;28;20359;-67
2023/03/17 11:34:08;;;;;;;3.92;2.60;;;15.30;99.90;;;;;;4989592;28;20125;-66
2023/03/17 11:36:53;;;;;;;3.75;2.63;;;15.30;99.90;;;;;;5048673;28;20142;-66
2023/03/17 11:39:22;;;;;;;4.18;2.72;;;15.50;99.90;;;;;;5051286;28;20045;-66
2023/03/17 11:42:11;;;;;;;4.28;2.70;;;15.80;99.90;;;;;;5052192;28;20059;-67
2023/03/17 11:44:54;;;;;;;4.35;2.50;;;16.00;99.90;;;;;;5052565;28;20053;-67
2023/03/17 11:47:37;;;;;;;4.03;2.78;;;16.10;99.90;;;;;;5052347;28;20438;-66
2023/03/17 11:50:10;;;;;;;5.43;2.65;;;16.30;99.90;;;;;;5051454;28;20052;-67
2023/03/17 11:53:05;;;;;;;4.95;2.80;;;16.30;99.90;;;;;;5052271;28;20065;-66
2023/03/17 11:55:52;;;;;;;5.85;3.00;;;16.10;99.90;;;;;;5000406;28;20053;-67
2023/03/17 11:58:50;;;;;;;3.97;2.63;;;16.00;99.90;;;;;;5052386;28;20492;-65
2023/03/17 12:01:26;;;;;;;4.25;2.50;;;15.90;99.90;;;;;;5032851;28;20052;-66
2023/03/17 12:04:06;;;;;;;3.92;2.60;;;15.90;99.90;;;;;;5051468;28;20045;-65
2023/03/17 12:06:45;;;;;;;4.78;2.70;;;15.90;99.90;;;;;;5050834;28;20400;-66
2023/03/17 12:09:33;;;;;;;4.18;2.33;;;16.00;99.90;;;;;;5051724;28;20123;-66
2023/03/17 12:12:02;;;;;;;4.38;2.67;;;15.90;99.90;;;;;;5049888;28;20048;-74
2023/03/17 12:14:41;;;;;;;5.55;3.10;;;15.60;99.90;;;;;;5051079;28;20710;-77
2023/03/17 12:17:20;;;;;;;3.92;2.55;;;15.50;99.90;;;;;;5051290;28;20114;-76
2023/03/17 12:20:17;;;;;;;5.18;3.42;;;15.50;99.90;;;;;;5067338;28;20490;-74
2023/03/17 12:23:04;;;;;;;4.72;2.72;;;15.50;99.90;;;;;;5067482;28;20554;-74
2023/03/17 12:26:15;;;;;;;5.10;3.10;;;15.50;99.90;;;;;;5051540;28;20044;-73
2023/03/17 12:28:55;;;;;;;4.70;3.47;;;15.70;99.90;;;;;;5022422;28;20143;-76
2023/03/17 12:31:44;;;;;;;5.45;3.20;;;15.60;99.90;;;;;;5051564;28;20044;-74
2023/03/17 12:34:52;;;;;;;4.57;2.90;;;15.40;99.90;;;;;;5066846;28;20464;-74
2023/03/17 12:37:18;;;;;;;6.55;3.25;;;15.30;99.90;;;;;;5018315;28;20053;-75
2023/03/17 12:39:52;;;;;;;4.25;3.13;;;15.20;99.90;;;;;;5051432;28;20057;-75
2023/03/17 12:42:56;;;;;;;5.55;2.95;;;15.10;99.90;;;;;;5049667;28;20057;-77
2023/03/17 12:46:03;;;;;;;4.38;3.20;;;15.10;99.90;;;;;;5033647;28;20048;-74
2023/03/17 12:48:53;;;;;;;4.45;3.13;;;15.00;99.90;;;;;;5005784;28;20160;-74
2023/03/17 12:51:31;;;;;;;6.20;3.25;;;14.80;99.90;;;;;;5032802;28;20075;-75
2023/03/17 12:53:58;;;;;;;4.45;2.88;;;14.80;99.90;;;;;;5033675;28;20061;-74
2023/03/17 12:56:28;;;;;;;5.30;3.20;;;14.80;99.90;;;;;;5050822;28;20429;-73
2023/03/17 12:59:05;;;;;;;4.93;2.80;;;14.80;99.90;;;;;;5033125;28;20492;-73
2023/03/17 13:01:33;;;;;;;4.82;3.40;;;14.90;99.90;;;;;;5032498;28;20033;-73
2023/03/17 13:04:07;;;;;;;5.20;3.10;;;14.80;99.90;;;;;;5031282;28;20374;-73
2023/03/17 13:07:07;;;;;;;4.80;2.90;;;14.70;99.90;;;;;;5033428;28;20401;-73
2023/03/17 13:09:36;;;;;;;4.40;3.22;;;14.60;99.90;;;;;;5032852;28;20053;-73
2023/03/17 13:12:05;;;;;;;5.25;3.03;;;14.60;99.90;;;;;;5033197;28;20043;-73